Time;durP1;ratioP1;P1;durP2;ratioP2;P2;SDS_P1;SDS_P2;PMS_P1;PMS_P2;Temp;Humidity;BMP_temperature;BMP_pressure;BME280_temperature;BME280_humidity;BME280_pressure;Samples;Min_cycle;Max_cycle;Signal;HPM_P1;HPM_P2
2024/02/04 00:01:43;;;;;;;2.33;1.33;;;7.70;7.20;;;;;;4933837;29;20213;-74
2024/02/04 00:04:09;;;;;;;1.97;1.07;;;7.60;6.30;;;;;;4948838;29;20660;-73
2024/02/04 00:06:34;;;;;;;2.40;1.20;;;7.60;7.20;;;;;;4934288;29;20627;-72
2024/02/04 00:09:00;;;;;;;2.10;0.97;;;7.60;6.40;;;;;;4933508;29;20622;-71
2024/02/04 00:11:25;;;;;;;1.80;1.00;;;7.60;7.00;;;;;;4933505;29;20589;-72
2024/02/04 00:13:51;;;;;;;2.30;1.13;;;7.60;7.00;;;;;;4933833;29;20194;-72
2024/02/04 00:16:17;;;;;;;2.73;1.13;;;7.60;6.10;;;;;;4933263;29;20268;-74
2024/02/04 00:18:43;;;;;;;1.63;0.90;;;7.60;6.60;;;;;;4933432;29;20848;-72
2024/02/04 00:21:09;;;;;;;3.43;1.27;;;7.70;6.10;;;;;;4933218;29;20585;-73
2024/02/04 00:23:34;;;;;;;2.00;1.00;;;7.60;6.00;;;;;;4933623;29;20526;-74
2024/02/04 00:26:00;;;;;;;1.93;1.20;;;7.60;6.20;;;;;;4933376;29;20208;-72
2024/02/04 00:28:27;;;;;;;2.60;1.07;;;7.70;6.50;;;;;;4932191;29;20191;-73
2024/02/04 00:30:55;;;;;;;2.20;1.17;;;7.70;6.20;;;;;;4933481;29;20182;-72
2024/02/04 00:33:23;;;;;;;2.20;1.73;;;7.70;5.90;;;;;;4951420;28;20484;-71
2024/02/04 00:35:49;;;;;;;2.97;1.30;;;7.60;6.20;;;;;;4935820;29;20451;-71
2024/02/04 00:38:15;;;;;;;2.10;1.20;;;7.60;5.90;;;;;;4937336;29;20443;-72
2024/02/04 00:40:41;;;;;;;3.53;1.10;;;7.60;5.80;;;;;;4936921;29;20467;-72
2024/02/04 00:43:06;;;;;;;1.67;0.70;;;7.50;6.10;;;;;;4937245;29;20197;-72
2024/02/04 00:45:32;;;;;;;2.80;1.30;;;7.50;6.60;;;;;;4937486;29;20527;-72
2024/02/04 00:47:57;;;;;;;2.50;1.13;;;7.50;6.80;;;;;;4937540;29;20176;-72
2024/02/04 00:50:23;;;;;;;2.13;1.10;;;7.50;7.00;;;;;;4937297;29;20216;-72
2024/02/04 00:52:49;;;;;;;2.57;1.20;;;7.50;6.90;;;;;;4935647;29;20216;-72
2024/02/04 00:55:14;;;;;;;2.57;1.37;;;7.50;7.10;;;;;;4937552;29;20196;-71
2024/02/04 00:57:40;;;;;;;2.40;1.40;;;7.50;6.60;;;;;;4935298;29;20218;-72
2024/02/04 01:00:07;;;;;;;2.00;1.00;;;7.60;6.60;;;;;;4936415;29;20756;-72
2024/02/04 01:02:33;;;;;;;2.07;1.00;;;7.50;6.30;;;;;;4936688;29;20213;-72
2024/02/04 01:04:59;;;;;;;1.93;1.07;;;7.50;6.40;;;;;;4935416;29;20440;-73
2024/02/04 01:07:25;;;;;;;2.30;1.43;;;7.50;6.70;;;;;;4935042;29;20480;-71
2024/02/04 01:09:50;;;;;;;2.43;1.33;;;7.50;7.20;;;;;;4936474;29;20181;-72
2024/02/04 01:12:16;;;;;;;2.47;1.30;;;7.50;7.10;;;;;;4959327;23;20243;-69
2024/02/04 01:14:41;;;;;;;2.20;1.37;;;7.50;6.90;;;;;;4937294;29;20525;-69
2024/02/04 01:17:07;;;;;;;2.03;1.00;;;7.50;6.80;;;;;;4937299;29;20181;-70
2024/02/04 01:19:33;;;;;;;2.23;1.00;;;7.50;6.90;;;;;;4937527;29;20682;-69
2024/02/04 01:21:59;;;;;;;1.83;0.93;;;7.50;6.50;;;;;;4937133;29;20483;-69
2024/02/04 01:24:25;;;;;;;2.00;1.00;;;7.50;6.40;;;;;;4937292;29;20272;-71
2024/02/04 01:26:50;;;;;;;2.33;1.07;;;7.60;6.30;;;;;;4937162;29;20236;-73
2024/02/04 01:29:16;;;;;;;1.90;0.70;;;7.60;5.80;;;;;;4937193;29;20423;-71
2024/02/04 01:31:42;;;;;;;2.17;1.13;;;7.50;6.10;;;;;;4936896;29;20215;-69
2024/02/04 01:34:07;;;;;;;2.20;0.93;;;7.50;6.60;;;;;;4937028;29;20258;-70
2024/02/04 01:36:33;;;;;;;3.33;1.47;;;7.50;6.20;;;;;;4936774;29;20208;-70
2024/02/04 01:38:58;;;;;;;2.30;1.00;;;7.50;6.30;;;;;;4936785;29;20265;-69
2024/02/04 01:41:27;;;;;;;4.77;1.30;;;7.40;5.90;;;;;;4936872;29;20212;-68
2024/02/04 01:43:53;;;;;;;2.40;1.00;;;7.40;6.20;;;;;;4935924;29;20231;-70
2024/02/04 01:46:18;;;;;;;1.80;1.00;;;7.20;6.80;;;;;;4936752;29;20415;-71
2024/02/04 01:48:44;;;;;;;1.57;0.90;;;7.10;7.50;;;;;;4935674;29;20424;-69
2024/02/04 01:51:10;;;;;;;2.00;1.00;;;7.10;7.90;;;;;;4936834;29;20176;-68
2024/02/04 01:53:38;;;;;;;2.13;1.00;;;7.00;8.50;;;;;;4936690;29;20490;-69
2024/02/04 01:56:05;;;;;;;3.13;1.33;;;7.00;8.20;;;;;;4936526;29;20189;-69
2024/02/04 01:58:31;;;;;;;4.70;1.40;;;7.00;8.50;;;;;;4936667;29;20420;-70
2024/02/04 02:00:57;;;;;;;1.97;0.87;;;7.00;8.50;;;;;;4936705;29;20483;-70
2024/02/04 02:03:24;;;;;;;1.77;0.80;;;7.00;8.60;;;;;;4936943;29;20193;-70
2024/02/04 02:05:50;;;;;;;3.67;1.27;;;7.00;8.50;;;;;;4936379;29;20420;-69
2024/02/04 02:08:16;;;;;;;3.20;1.17;;;7.10;8.60;;;;;;4936441;29;20460;-69
2024/02/04 02:10:46;;;;;;;4.40;2.13;;;7.10;8.60;;;;;;4936653;29;20188;-70
2024/02/04 02:13:23;;;;;;;2.50;1.37;;;7.20;8.50;;;;;;4936582;29;20963;-70
2024/02/04 02:15:54;;;;;;;2.37;1.03;;;7.20;7.80;;;;;;4936323;29;20419;-69
2024/02/04 02:18:37;;;;;;;1.77;1.00;;;7.20;7.80;;;;;;4936478;29;20780;-70
2024/02/04 02:21:15;;;;;;;6.03;2.00;;;7.10;8.60;;;;;;4935200;29;20470;-70
2024/02/04 02:23:52;;;;;;;2.03;0.80;;;7.10;8.60;;;;;;4936432;29;20443;-70
2024/02/04 02:26:18;;;;;;;3.40;1.73;;;7.10;8.60;;;;;;4951170;28;20420;-69
2024/02/04 02:28:44;;;;;;;2.20;1.10;;;7.10;8.60;;;;;;4934863;29;20419;-69
2024/02/04 02:31:09;;;;;;;3.93;1.30;;;7.20;8.60;;;;;;4936642;29;20763;-68
2024/02/04 02:33:35;;;;;;;2.70;1.33;;;7.10;8.30;;;;;;4936041;29;20215;-71
2024/02/04 02:36:06;;;;;;;4.20;1.60;;;7.20;8.60;;;;;;4935718;29;20706;-69
2024/02/04 02:38:43;;;;;;;3.53;1.73;;;7.20;8.30;;;;;;4935913;29;20238;-68
2024/02/04 02:41:09;;;;;;;3.37;1.53;;;7.20;8.60;;;;;;4935713;29;20491;-69
2024/02/04 02:43:38;;;;;;;3.83;1.47;;;7.20;8.70;;;;;;4935757;29;20437;-68
2024/02/04 02:46:04;;;;;;;3.43;1.33;;;7.20;8.60;;;;;;4935400;29;20919;-69
2024/02/04 02:48:30;;;;;;;2.10;0.93;;;7.10;8.60;;;;;;4935810;29;20474;-69
2024/02/04 02:50:56;;;;;;;2.37;1.37;;;7.10;8.60;;;;;;4935807;29;20789;-69
2024/02/04 02:53:21;;;;;;;3.80;1.40;;;7.00;8.80;;;;;;4936556;29;20212;-69
2024/02/04 02:55:46;;;;;;;2.30;1.27;;;7.00;9.40;;;;;;4936503;29;20196;-69
2024/02/04 02:58:13;;;;;;;2.80;1.50;;;7.10;9.20;;;;;;4935778;29;20659;-69
2024/02/04 03:00:39;;;;;;;2.60;1.20;;;7.00;9.40;;;;;;4933979;29;20211;-68
2024/02/04 03:03:04;;;;;;;2.10;1.10;;;7.00;9.30;;;;;;4935379;29;20444;-69
2024/02/04 03:05:30;;;;;;;3.83;1.33;;;7.00;9.90;;;;;;4935502;29;20189;-69
2024/02/04 03:07:55;;;;;;;2.57;1.50;;;7.00;9.90;;;;;;4935082;29;20249;-69
2024/02/04 03:10:21;;;;;;;2.70;1.47;;;7.00;10.40;;;;;;4934197;29;20185;-69
2024/02/04 03:12:46;;;;;;;3.93;2.03;;;7.00;9.90;;;;;;4935667;29;20225;-69
2024/02/04 03:15:12;;;;;;;2.90;1.40;;;7.10;10.10;;;;;;4935428;29;20271;-70
2024/02/04 03:17:37;;;;;;;3.10;1.57;;;7.00;10.10;;;;;;4935213;29;20264;-69
2024/02/04 03:20:04;;;;;;;2.47;0.73;;;7.10;9.80;;;;;;4935109;29;20185;-69
2024/02/04 03:22:29;;;;;;;2.13;1.03;;;7.10;10.00;;;;;;4934327;29;20215;-69
2024/02/04 03:24:54;;;;;;;2.50;1.40;;;7.10;10.30;;;;;;4935449;29;20598;-69
2024/02/04 03:27:21;;;;;;;2.80;1.30;;;7.10;10.10;;;;;;4935865;29;20196;-69
2024/02/04 03:29:47;;;;;;;3.37;1.10;;;7.10;10.10;;;;;;4936248;29;20673;-68
2024/02/04 03:32:13;;;;;;;2.00;0.90;;;7.10;9.70;;;;;;4934638;29;20798;-69
2024/02/04 03:34:40;;;;;;;1.90;1.00;;;7.20;9.60;;;;;;4936079;29;20427;-69
2024/02/04 03:37:09;;;;;;;2.20;0.90;;;7.10;9.30;;;;;;4935756;29;20886;-69
2024/02/04 03:39:35;;;;;;;2.10;0.90;;;7.20;9.80;;;;;;4935281;29;20933;-68
2024/02/04 03:42:00;;;;;;;2.80;1.30;;;7.20;9.90;;;;;;4934017;29;20472;-68
2024/02/04 03:44:26;;;;;;;2.50;1.30;;;7.20;9.40;;;;;;4935337;29;20221;-69
2024/02/04 03:46:51;;;;;;;2.33;1.60;;;7.30;9.20;;;;;;4933828;29;20605;-69
2024/02/04 03:49:17;;;;;;;2.70;1.10;;;7.30;8.70;;;;;;4935064;29;20187;-69
2024/02/04 03:51:43;;;;;;;3.63;1.10;;;7.30;8.70;;;;;;4935117;29;20255;-69
2024/02/04 03:54:09;;;;;;;2.17;1.20;;;7.20;8.60;;;;;;4935124;29;20428;-69
2024/02/04 03:56:34;;;;;;;2.87;1.43;;;7.20;8.60;;;;;;4934716;29;20840;-69
2024/02/04 03:59:00;;;;;;;2.37;1.10;;;7.20;9.10;;;;;;4933308;29;20275;-69
2024/02/04 04:01:25;;;;;;;2.90;1.43;;;7.30;8.70;;;;;;4934818;29;20690;-69
2024/02/04 04:03:51;;;;;;;6.83;1.23;;;7.30;8.70;;;;;;4934841;29;20185;-69
2024/02/04 04:06:16;;;;;;;1.50;0.70;;;7.30;8.70;;;;;;4933951;29;20283;-70
2024/02/04 04:08:42;;;;;;;1.90;0.97;;;7.20;8.60;;;;;;4941028;29;20206;-68
2024/02/04 04:11:09;;;;;;;2.27;1.00;;;7.20;9.40;;;;;;4941057;29;20213;-68
2024/02/04 04:13:35;;;;;;;1.80;1.00;;;7.20;9.00;;;;;;4941558;29;20214;-69
2024/02/04 04:16:01;;;;;;;2.03;0.90;;;7.10;9.50;;;;;;4940940;29;20518;-69
2024/02/04 04:18:27;;;;;;;1.97;0.90;;;7.20;9.60;;;;;;4941159;29;20320;-69
2024/02/04 04:20:52;;;;;;;2.13;1.07;;;7.20;9.40;;;;;;4941231;29;20571;-69
2024/02/04 04:23:18;;;;;;;2.10;1.10;;;7.20;9.40;;;;;;4941002;29;20199;-70
2024/02/04 04:25:47;;;;;;;1.90;0.87;;;7.10;9.40;;;;;;4939971;29;20188;-70
2024/02/04 04:28:12;;;;;;;1.70;0.83;;;7.10;9.70;;;;;;4940711;29;20427;-70
2024/02/04 04:30:38;;;;;;;1.93;0.77;;;7.10;10.10;;;;;;4941033;29;20911;-69
2024/02/04 04:33:04;;;;;;;1.50;0.80;;;7.10;9.70;;;;;;4940935;29;20224;-69
2024/02/04 04:35:29;;;;;;;2.80;0.80;;;7.10;9.90;;;;;;4941078;29;20227;-70
2024/02/04 04:37:55;;;;;;;1.80;0.80;;;7.00;10.10;;;;;;4940929;29;20183;-68
2024/02/04 04:40:20;;;;;;;2.27;1.17;;;7.00;10.30;;;;;;4941283;29;20210;-69
2024/02/04 04:42:46;;;;;;;1.70;0.80;;;7.00;10.20;;;;;;4941238;29;20208;-70
2024/02/04 04:45:11;;;;;;;2.07;0.63;;;6.90;10.50;;;;;;4941045;29;20188;-70
2024/02/04 04:47:37;;;;;;;1.70;0.80;;;6.90;10.30;;;;;;4940573;29;20228;-69
2024/02/04 04:50:05;;;;;;;2.00;0.90;;;6.90;10.30;;;;;;4941175;29;20184;-68
2024/02/04 04:52:31;;;;;;;1.90;1.00;;;6.90;10.30;;;;;;4940651;29;20644;-69
2024/02/04 04:54:56;;;;;;;2.57;1.00;;;6.90;10.20;;;;;;4958135;28;20426;-69
2024/02/04 04:57:22;;;;;;;2.67;1.10;;;6.80;10.60;;;;;;4942903;29;20670;-69
2024/02/04 04:59:51;;;;;;;1.70;0.60;;;6.70;10.60;;;;;;4942823;29;20176;-70
2024/02/04 05:02:16;;;;;;;3.33;1.00;;;6.70;11.20;;;;;;4942714;29;20469;-69
2024/02/04 05:04:45;;;;;;;1.60;0.73;;;6.70;11.20;;;;;;4942476;29;20425;-69
2024/02/04 05:07:11;;;;;;;1.50;0.67;;;6.70;11.00;;;;;;4940744;29;20196;-69
2024/02/04 05:09:37;;;;;;;2.10;0.77;;;6.60;11.00;;;;;;4940116;29;20427;-69
2024/02/04 05:12:03;;;;;;;1.90;1.00;;;6.60;11.30;;;;;;4941417;29;20454;-69
2024/02/04 05:14:29;;;;;;;5.30;0.60;;;6.70;11.70;;;;;;4941197;29;20184;-69
2024/02/04 05:16:54;;;;;;;1.50;0.60;;;6.80;10.80;;;;;;4942270;29;20458;-69
2024/02/04 05:19:20;;;;;;;2.30;1.20;;;6.70;10.20;;;;;;4936433;29;20243;-69
2024/02/04 05:21:46;;;;;;;2.37;0.80;;;6.80;10.20;;;;;;4937955;29;20224;-69
2024/02/04 05:24:11;;;;;;;1.80;0.93;;;6.90;10.30;;;;;;4938043;29;20829;-69
2024/02/04 05:26:37;;;;;;;4.10;0.83;;;6.90;9.30;;;;;;4938119;29;20217;-69
2024/02/04 05:29:02;;;;;;;3.50;1.27;;;6.90;10.30;;;;;;4937996;29;20258;-69
2024/02/04 05:31:28;;;;;;;1.83;1.00;;;7.00;9.30;;;;;;4938398;29;20188;-69
2024/02/04 05:33:53;;;;;;;2.73;0.77;;;7.00;9.00;;;;;;4938403;29;20683;-69
2024/02/04 05:36:19;;;;;;;1.60;0.70;;;7.00;9.20;;;;;;4938720;29;20208;-68
2024/02/04 05:38:45;;;;;;;2.33;1.47;;;7.10;8.60;;;;;;4936410;29;20208;-68
2024/02/04 05:41:11;;;;;;;2.00;0.90;;;7.10;8.60;;;;;;4952645;28;20258;-69
2024/02/04 05:43:36;;;;;;;2.63;1.00;;;7.00;8.50;;;;;;4937642;29;20479;-68
2024/02/04 05:46:02;;;;;;;2.30;1.17;;;7.00;8.50;;;;;;4937326;29;20188;-69
2024/02/04 05:48:28;;;;;;;2.90;1.37;;;7.00;8.50;;;;;;4935934;29;20191;-68
2024/02/04 05:50:53;;;;;;;2.00;1.23;;;7.10;8.60;;;;;;4936084;29;20189;-68
2024/02/04 05:53:19;;;;;;;1.80;0.90;;;7.10;8.60;;;;;;4937123;29;20287;-68
2024/02/04 05:55:44;;;;;;;2.17;1.10;;;7.00;8.50;;;;;;4937358;29;20200;-68
2024/02/04 05:58:10;;;;;;;1.40;0.60;;;7.00;9.00;;;;;;4937006;29;20183;-67
2024/02/04 06:00:36;;;;;;;2.00;1.10;;;7.00;8.50;;;;;;4936957;29;20209;-70
2024/02/04 06:03:01;;;;;;;1.90;0.77;;;7.00;8.50;;;;;;4936571;29;20286;-68
2024/02/04 06:05:27;;;;;;;2.00;1.10;;;7.00;8.60;;;;;;4936934;29;20179;-70
2024/02/04 06:07:52;;;;;;;2.50;1.40;;;7.00;9.20;;;;;;4936842;29;20188;-69
2024/02/04 06:10:18;;;;;;;2.37;1.07;;;7.00;9.20;;;;;;4936524;29;20187;-69
2024/02/04 06:12:45;;;;;;;1.63;0.77;;;7.00;9.20;;;;;;4936588;29;20229;-69
2024/02/04 06:15:14;;;;;;;1.90;1.10;;;7.00;9.20;;;;;;4935567;29;20259;-70
2024/02/04 06:17:40;;;;;;;1.70;0.97;;;7.00;9.00;;;;;;4936043;29;20418;-69
2024/02/04 06:20:06;;;;;;;2.33;0.80;;;7.00;8.50;;;;;;4951056;29;20478;-69
2024/02/04 06:22:32;;;;;;;2.20;1.20;;;7.00;8.90;;;;;;4936357;29;20730;-69
2024/02/04 06:24:57;;;;;;;2.07;0.70;;;7.00;8.90;;;;;;4936563;29;20456;-69
2024/02/04 06:27:23;;;;;;;1.80;0.73;;;7.00;8.50;;;;;;4936369;29;20195;-69
2024/02/04 06:29:49;;;;;;;2.87;1.27;;;7.00;9.00;;;;;;4935935;29;20184;-69
2024/02/04 06:32:14;;;;;;;2.13;0.77;;;7.00;9.30;;;;;;4936407;29;20215;-69
2024/02/04 06:34:40;;;;;;;1.80;1.00;;;7.10;8.60;;;;;;4936415;29;20189;-69
2024/02/04 06:37:05;;;;;;;1.80;0.73;;;7.10;8.60;;;;;;4936284;29;20188;-70
2024/02/04 06:39:31;;;;;;;1.80;0.70;;;7.00;8.50;;;;;;4935422;29;20185;-68
2024/02/04 06:41:56;;;;;;;1.70;0.77;;;7.00;8.50;;;;;;4936812;29;20215;-69
2024/02/04 06:44:22;;;;;;;1.43;0.57;;;7.00;8.50;;;;;;4935550;29;20276;-68
2024/02/04 06:46:48;;;;;;;1.83;0.70;;;7.00;8.50;;;;;;4935099;29;20239;-68
2024/02/04 06:49:18;;;;;;;2.57;1.07;;;7.00;8.50;;;;;;4935070;29;20730;-69
2024/02/04 06:51:43;;;;;;;1.80;0.70;;;7.00;8.50;;;;;;4939342;29;20710;-69
2024/02/04 06:54:10;;;;;;;1.97;0.97;;;7.00;9.00;;;;;;4935885;29;20423;-69
2024/02/04 06:56:36;;;;;;;3.30;0.83;;;7.00;9.40;;;;;;4936904;29;20455;-69
2024/02/04 06:59:02;;;;;;;1.60;0.70;;;7.00;9.40;;;;;;4936451;29;20434;-69
2024/02/04 07:01:28;;;;;;;1.70;0.70;;;7.00;9.40;;;;;;4935920;29;20460;-69
2024/02/04 07:03:53;;;;;;;1.70;0.70;;;7.00;9.50;;;;;;4935994;29;20183;-69
2024/02/04 07:06:19;;;;;;;1.70;0.90;;;7.00;9.60;;;;;;4936079;29;20181;-71
2024/02/04 07:08:44;;;;;;;1.80;0.87;;;7.00;9.70;;;;;;4935816;29;20186;-71
2024/02/04 07:11:10;;;;;;;1.90;0.83;;;7.00;9.70;;;;;;4936216;29;20302;-71
2024/02/04 07:13:35;;;;;;;1.67;0.80;;;7.10;9.50;;;;;;4957833;23;20235;-68
2024/02/04 07:16:01;;;;;;;1.93;0.80;;;7.10;9.00;;;;;;4934594;29;20177;-69
2024/02/04 07:18:26;;;;;;;1.80;0.80;;;7.10;8.60;;;;;;4934036;29;20743;-69
2024/02/04 07:20:52;;;;;;;2.30;0.60;;;7.10;8.60;;;;;;4933769;29;20584;-69
2024/02/04 07:23:18;;;;;;;8.83;3.13;;;7.10;8.60;;;;;;4934467;29;20678;-69
2024/02/04 07:25:43;;;;;;;8.50;4.13;;;7.10;7.90;;;;;;4934568;29;20179;-68
2024/02/04 07:28:09;;;;;;;4.07;2.13;;;7.20;8.50;;;;;;4934200;29;20174;-69
2024/02/04 07:30:34;;;;;;;2.60;1.50;;;7.30;8.10;;;;;;4933434;29;20220;-69
2024/02/04 07:33:00;;;;;;;2.17;1.00;;;7.30;7.40;;;;;;4934691;29;20216;-69
2024/02/04 07:35:25;;;;;;;4.63;1.27;;;7.30;6.70;;;;;;4935238;29;20232;-69
2024/02/04 07:37:51;;;;;;;2.57;1.13;;;7.40;6.50;;;;;;4934272;29;20235;-67
2024/02/04 07:40:16;;;;;;;2.80;1.27;;;7.50;6.00;;;;;;4934535;29;20188;-68
2024/02/04 07:42:42;;;;;;;1.60;0.90;;;7.50;5.40;;;;;;4933909;29;20200;-68
2024/02/04 07:45:09;;;;;;;2.37;1.27;;;7.50;5.60;;;;;;4934477;29;20176;-68
2024/02/04 07:47:36;;;;;;;2.23;1.27;;;7.60;4.90;;;;;;4934351;29;20236;-68
2024/02/04 07:50:01;;;;;;;2.53;1.40;;;7.60;4.50;;;;;;4934369;29;20772;-68
2024/02/04 07:52:27;;;;;;;2.80;1.77;;;7.70;5.00;;;;;;4934842;29;20482;-67
2024/02/04 07:54:52;;;;;;;5.07;2.50;;;7.50;4.70;;;;;;4934700;29;20267;-67
2024/02/04 07:57:18;;;;;;;2.30;1.40;;;7.60;5.40;;;;;;4934215;29;20642;-69
2024/02/04 07:59:43;;;;;;;3.87;1.03;;;7.70;4.50;;;;;;4934480;29;20184;-69
2024/02/04 08:02:09;;;;;;;2.00;0.90;;;7.60;4.40;;;;;;4934439;29;20523;-69
2024/02/04 08:04:34;;;;;;;9.27;0.90;;;7.70;4.50;;;;;;4933074;29;20190;-69
2024/02/04 08:07:00;;;;;;;1.70;0.70;;;7.60;4.70;;;;;;4934290;29;20184;-69
2024/02/04 08:09:26;;;;;;;1.70;0.70;;;7.70;5.40;;;;;;4934294;29;20647;-68
2024/02/04 08:11:51;;;;;;;2.83;1.00;;;7.60;5.40;;;;;;4934163;29;20212;-68
2024/02/04 08:14:18;;;;;;;2.93;1.10;;;7.70;5.10;;;;;;4934262;29;20603;-69
2024/02/04 08:16:46;;;;;;;2.07;0.70;;;7.70;5.00;;;;;;4934128;29;20649;-69
2024/02/04 08:19:11;;;;;;;2.03;1.33;;;7.70;5.00;;;;;;4934100;29;20501;-69
2024/02/04 08:21:37;;;;;;;2.97;0.87;;;7.70;4.50;;;;;;4933929;29;20973;-69
2024/02/04 08:24:02;;;;;;;2.53;1.17;;;7.80;4.90;;;;;;4934192;29;20177;-68
2024/02/04 08:26:28;;;;;;;1.83;0.70;;;7.80;4.50;;;;;;4933822;29;20676;-68
2024/02/04 08:28:54;;;;;;;2.20;1.07;;;7.80;4.50;;;;;;4933961;29;20264;-68
2024/02/04 08:31:19;;;;;;;2.00;0.90;;;7.80;4.30;;;;;;4934185;29;20212;-69
2024/02/04 08:33:45;;;;;;;2.53;1.00;;;7.90;4.70;;;;;;4932889;29;20209;-69
2024/02/04 08:36:10;;;;;;;1.60;0.60;;;7.90;4.30;;;;;;4934265;29;20188;-69
2024/02/04 08:38:37;;;;;;;2.33;1.30;;;8.00;4.40;;;;;;4932821;29;20197;-69
2024/02/04 08:41:03;;;;;;;1.90;1.00;;;8.00;4.30;;;;;;4933980;29;20212;-69
2024/02/04 08:43:29;;;;;;;1.60;0.73;;;8.10;3.80;;;;;;4948545;28;20500;-69
2024/02/04 08:45:54;;;;;;;1.53;0.70;;;8.10;3.70;;;;;;4933851;29;20511;-69
2024/02/04 08:48:20;;;;;;;2.20;0.97;;;8.30;2.50;;;;;;4934043;29;20192;-69
2024/02/04 08:50:45;;;;;;;1.80;1.00;;;8.30;1.90;;;;;;4934508;29;20185;-69
2024/02/04 08:53:11;;;;;;;2.20;0.90;;;8.40;2.00;;;;;;4935130;29;20794;-68
2024/02/04 08:55:45;;;;;;;3.87;1.43;;;8.40;1.00;;;;;;4937665;29;20206;-72
2024/02/04 08:58:11;;;;;;;1.70;0.80;;;8.30;2.00;;;;;;4937542;29;20592;-68
2024/02/04 09:00:36;;;;;;;2.00;1.43;;;8.30;2.10;;;;;;4937722;29;20495;-69
2024/02/04 09:03:02;;;;;;;4.77;1.13;;;8.50;1.90;;;;;;4937686;29;20198;-69
2024/02/04 09:05:30;;;;;;;1.90;0.83;;;8.50;1.00;;;;;;4937653;29;20178;-69
2024/02/04 09:07:56;;;;;;;1.93;0.87;;;8.50;1.30;;;;;;4937391;29;20515;-68
2024/02/04 09:10:21;;;;;;;3.17;0.90;;;8.50;1.80;;;;;;4937356;29;20509;-69
2024/02/04 09:12:47;;;;;;;3.83;1.37;;;8.70;1.00;;;;;;4937186;29;20240;-69
2024/02/04 09:15:13;;;;;;;2.10;1.00;;;8.70;1.00;;;;;;4937610;29;20186;-68
2024/02/04 09:17:38;;;;;;;2.20;1.00;;;8.60;1.00;;;;;;4937200;29;20424;-69
2024/02/04 09:20:05;;;;;;;1.80;0.77;;;8.70;1.00;;;;;;4936996;29;20269;-69
2024/02/04 09:22:30;;;;;;;1.67;0.60;;;8.60;1.00;;;;;;4937210;29;20190;-69
2024/02/04 09:24:56;;;;;;;1.53;0.60;;;8.60;1.00;;;;;;4937248;29;20952;-69
2024/02/04 09:27:21;;;;;;;1.53;0.70;;;8.60;1.00;;;;;;4937093;29;20186;-69
2024/02/04 09:29:47;;;;;;;1.60;0.70;;;8.70;1.00;;;;;;4937250;29;20733;-69
2024/02/04 09:32:13;;;;;;;2.60;1.20;;;8.70;1.00;;;;;;4937188;29;20443;-69
2024/02/04 09:34:38;;;;;;;1.70;0.60;;;8.90;1.00;;;;;;4936956;29;20268;-69
2024/02/04 09:37:04;;;;;;;2.40;1.57;;;8.80;1.00;;;;;;4936808;29;20265;-69
2024/02/04 09:39:30;;;;;;;2.43;1.70;;;8.80;1.00;;;;;;4936808;29;20955;-69
2024/02/04 09:41:56;;;;;;;2.40;1.40;;;8.70;1.00;;;;;;4936846;29;20713;-69
2024/02/04 09:44:23;;;;;;;3.43;1.73;;;8.80;1.00;;;;;;4935516;29;20191;-69
2024/02/04 09:46:48;;;;;;;4.03;1.50;;;8.80;1.00;;;;;;4936442;29;20789;-69
2024/02/04 09:49:14;;;;;;;1.80;0.80;;;8.90;1.00;;;;;;4936417;29;20481;-69
2024/02/04 09:51:41;;;;;;;2.63;1.40;;;9.10;1.00;;;;;;4936411;29;20186;-69
2024/02/04 09:54:09;;;;;;;2.40;1.70;;;9.20;1.00;;;;;;4936381;29;20421;-69
2024/02/04 09:56:37;;;;;;;2.73;1.13;;;9.40;1.00;;;;;;4936129;29;20459;-70
2024/02/04 09:59:04;;;;;;;2.93;1.60;;;9.30;1.00;;;;;;4936353;29;20425;-69
2024/02/04 10:01:31;;;;;;;2.43;1.30;;;9.40;1.00;;;;;;4936519;29;20465;-69
2024/02/04 10:03:57;;;;;;;1.83;0.90;;;10.10;1.00;;;;;;4936345;29;20415;-69
2024/02/04 10:06:22;;;;;;;1.90;0.90;;;10.60;1.00;;;;;;4935546;29;20420;-69
2024/02/04 10:08:48;;;;;;;2.00;1.03;;;10.60;1.00;;;;;;4936084;29;20170;-69
2024/02/04 10:11:13;;;;;;;2.27;1.03;;;10.60;1.00;;;;;;4936150;29;20189;-69
2024/02/04 10:13:46;;;;;;;2.53;1.17;;;10.60;1.00;;;;;;4934665;29;20571;-69
2024/02/04 10:16:13;;;;;;;3.53;1.33;;;10.70;1.00;;;;;;4934585;29;20650;-69
2024/02/04 10:18:53;;;;;;;2.87;1.10;;;10.80;1.00;;;;;;4935914;29;20418;-69
2024/02/04 10:21:20;;;;;;;2.00;0.90;;;10.70;1.00;;;;;;4935936;29;20469;-69
2024/02/04 10:23:47;;;;;;;1.93;0.87;;;10.40;1.00;;;;;;4935748;29;20449;-69
2024/02/04 10:26:13;;;;;;;3.20;1.07;;;10.40;1.00;;;;;;4935645;29;20509;-68
2024/02/04 10:28:40;;;;;;;2.87;1.07;;;10.80;1.00;;;;;;4935757;29;20486;-70
2024/02/04 10:31:09;;;;;;;2.33;1.07;;;10.40;1.00;;;;;;4935879;29;20174;-69
2024/02/04 10:33:36;;;;;;;2.40;0.90;;;10.20;1.00;;;;;;4935589;29;20449;-69
2024/02/04 10:36:02;;;;;;;8.40;3.33;;;10.20;1.00;;;;;;4935352;29;20935;-69
2024/02/04 10:38:28;;;;;;;5.63;4.37;;;10.10;1.00;;;;;;4935670;29;20780;-68
2024/02/04 10:40:54;;;;;;;10.63;7.03;;;10.20;1.00;;;;;;4935547;29;20466;-68
2024/02/04 10:43:21;;;;;;;1.60;0.60;;;9.90;1.00;;;;;;4935362;29;20203;-69
2024/02/04 10:45:51;;;;;;;1.93;0.70;;;10.10;1.00;;;;;;4935400;29;20431;-68
2024/02/04 10:48:20;;;;;;;1.90;0.90;;;10.30;1.00;;;;;;4935564;29;20426;-68
2024/02/04 10:50:47;;;;;;;3.60;0.80;;;10.70;1.00;;;;;;4935181;29;20411;-68
2024/02/04 10:53:14;;;;;;;2.90;1.07;;;10.60;1.00;;;;;;4936626;29;20505;-68
2024/02/04 10:55:46;;;;;;;2.80;0.93;;;10.70;1.00;;;;;;4935070;29;20420;-68
2024/02/04 10:58:13;;;;;;;2.23;0.80;;;11.00;1.00;;;;;;4936510;29;20419;-69
2024/02/04 11:00:40;;;;;;;2.87;1.10;;;10.90;1.00;;;;;;4934785;29;20455;-68
2024/02/04 11:03:06;;;;;;;5.50;0.83;;;10.70;1.00;;;;;;4934999;29;20439;-68
2024/02/04 11:05:35;;;;;;;1.70;0.80;;;10.60;1.00;;;;;;4934997;29;20933;-68
2024/02/04 11:08:04;;;;;;;3.80;1.77;;;10.70;1.00;;;;;;4934736;29;20175;-68
2024/02/04 11:10:31;;;;;;;2.93;1.47;;;11.00;1.00;;;;;;4934713;29;20434;-68
2024/02/04 11:12:58;;;;;;;3.50;1.77;;;11.10;1.00;;;;;;4934837;29;20489;-69
2024/02/04 11:15:28;;;;;;;6.03;4.40;;;11.10;1.00;;;;;;4934810;29;20433;-68
2024/02/04 11:18:06;;;;;;;2.57;1.63;;;11.20;1.00;;;;;;4934076;29;20423;-68
2024/02/04 11:20:57;;;;;;;2.30;1.30;;;11.20;1.00;;;;;;4934594;29;20473;-68
2024/02/04 11:23:51;;;;;;;4.17;2.23;;;11.20;1.00;;;;;;4934808;29;20444;-68
2024/02/04 11:26:18;;;;;;;1.60;0.70;;;11.20;1.00;;;;;;4924857;29;20434;-69
2024/02/04 11:28:43;;;;;;;5.43;3.20;;;11.30;1.00;;;;;;4934891;29;20417;-69
2024/02/04 11:31:17;;;;;;;3.07;1.60;;;11.40;1.00;;;;;;4934571;29;20850;-69
2024/02/04 11:33:44;;;;;;;1.80;0.77;;;11.40;1.00;;;;;;4934639;29;20202;-69
2024/02/04 11:36:15;;;;;;;3.57;0.93;;;11.70;1.00;;;;;;4934276;29;20428;-69
2024/02/04 11:38:40;;;;;;;2.00;1.30;;;11.80;1.00;;;;;;4934897;29;20434;-69
2024/02/04 11:41:07;;;;;;;2.20;1.13;;;11.80;1.00;;;;;;4934412;29;20459;-69
2024/02/04 11:43:36;;;;;;;2.30;1.17;;;12.00;1.00;;;;;;4934579;29;20195;-69
2024/02/04 11:46:05;;;;;;;3.10;1.23;;;12.10;1.00;;;;;;4934242;29;20473;-69
2024/02/04 11:48:33;;;;;;;2.47;1.20;;;12.30;1.00;;;;;;4934558;29;20422;-69
2024/02/04 11:51:01;;;;;;;1.73;0.80;;;12.40;1.00;;;;;;4934537;29;20915;-70
2024/02/04 11:53:31;;;;;;;3.10;1.40;;;12.50;1.00;;;;;;4934426;29;20442;-70
2024/02/04 11:55:58;;;;;;;1.60;0.70;;;12.60;1.00;;;;;;4934179;29;20485;-69
2024/02/04 11:58:23;;;;;;;3.97;1.77;;;12.30;1.00;;;;;;4934476;29;21014;-69
2024/02/04 12:00:53;;;;;;;1.90;0.83;;;12.20;1.00;;;;;;4934298;29;20549;-69
2024/02/04 12:03:31;;;;;;;2.30;1.33;;;12.40;1.00;;;;;;4934407;29;20218;-69
2024/02/04 12:05:58;;;;;;;2.83;0.90;;;12.50;1.00;;;;;;4934055;29;20410;-69
2024/02/04 12:08:25;;;;;;;2.70;1.10;;;12.50;1.00;;;;;;4934082;29;20424;-69
2024/02/04 12:10:51;;;;;;;1.80;0.80;;;12.50;1.00;;;;;;4934010;29;20929;-69
2024/02/04 12:13:18;;;;;;;2.23;1.10;;;12.90;1.00;;;;;;4934165;29;20458;-69
2024/02/04 12:15:44;;;;;;;1.90;0.97;;;13.30;1.00;;;;;;4934077;29;20426;-69
2024/02/04 12:18:11;;;;;;;2.10;1.13;;;13.30;1.00;;;;;;4933962;29;20422;-69
2024/02/04 12:20:38;;;;;;;2.47;1.27;;;13.70;1.00;;;;;;4933967;29;20508;-69
2024/02/04 12:23:05;;;;;;;2.67;1.40;;;13.50;1.00;;;;;;4933915;29;20446;-69
2024/02/04 12:25:31;;;;;;;3.03;1.27;;;13.20;1.00;;;;;;4933863;29;20839;-69
2024/02/04 12:28:04;;;;;;;2.37;1.10;;;13.00;1.00;;;;;;4934875;29;20417;-68
2024/02/04 12:30:31;;;;;;;2.10;1.30;;;13.10;1.00;;;;;;4937907;29;20449;-67
2024/02/04 12:33:04;;;;;;;1.90;1.07;;;13.20;1.00;;;;;;4937844;29;20466;-68
2024/02/04 12:35:30;;;;;;;1.90;0.90;;;13.20;1.00;;;;;;4937580;29;20498;-67
2024/02/04 12:37:57;;;;;;;2.60;1.20;;;12.80;1.00;;;;;;4937422;29;20411;-67
2024/02/04 12:40:30;;;;;;;3.60;1.30;;;12.80;1.00;;;;;;4937717;29;20937;-67
2024/02/04 12:42:57;;;;;;;2.73;0.80;;;12.80;1.00;;;;;;4937628;29;20432;-68
2024/02/04 12:45:24;;;;;;;1.60;0.70;;;13.00;1.00;;;;;;4937708;29;20462;-68
2024/02/04 12:47:51;;;;;;;1.83;0.93;;;12.90;1.00;;;;;;4937243;29;20420;-69
2024/02/04 12:50:18;;;;;;;1.80;1.07;;;12.90;1.00;;;;;;4937411;29;20415;-68
2024/02/04 12:53:01;;;;;;;1.70;0.80;;;12.60;1.00;;;;;;4940109;29;20504;-68
2024/02/04 12:55:33;;;;;;;2.20;0.93;;;12.60;1.00;;;;;;4936212;29;20460;-68
2024/02/04 12:58:06;;;;;;;1.50;0.73;;;12.20;1.00;;;;;;4937238;29;20922;-68
2024/02/04 13:00:33;;;;;;;2.43;0.80;;;12.20;1.00;;;;;;4937086;29;20462;-68
2024/02/04 13:02:59;;;;;;;1.83;0.80;;;12.10;1.00;;;;;;4937085;29;20441;-67